sensor_id;sensor_type;location;lat;lon;timestamp;temperature;humidity
38910;DHT22;24676;51.360;12.354;2023-07-28T00:01:35;16.80;99.90
38910;DHT22;24676;51.360;12.354;2023-07-28T00:04:19;16.90;99.90
38910;DHT22;24676;51.360;12.354;2023-07-28T00:07:04;16.90;99.90
38910;DHT22;24676;51.360;12.354;2023-07-28T00:09:49;16.90;99.90
38910;DHT22;24676;51.360;12.354;2023-07-28T00:12:34;16.90;99.90
38910;DHT22;24676;51.360;12.354;2023-07-28T00:15:18;16.90;99.90
38910;DHT22;24676;51.360;12.354;2023-07-28T00:18:02;16.90;99.90
38910;DHT22;24676;51.360;12.354;2023-07-28T00:20:47;16.90;99.90
38910;DHT22;24676;51.360;12.354;2023-07-28T00:23:31;16.90;99.90
38910;DHT22;24676;51.360;12.354;2023-07-28T00:26:15;16.90;99.90
38910;DHT22;24676;51.360;12.354;2023-07-28T00:29:00;16.90;99.90
38910;DHT22;24676;51.360;12.354;2023-07-28T00:31:45;17.00;99.90
38910;DHT22;24676;51.360;12.354;2023-07-28T00:34:29;16.90;99.90
38910;DHT22;24676;51.360;12.354;2023-07-28T00:37:13;16.90;99.90
38910;DHT22;24676;51.360;12.354;2023-07-28T00:39:58;17.00;99.90
38910;DHT22;24676;51.360;12.354;2023-07-28T00:42:42;17.00;99.90
38910;DHT22;24676;51.360;12.354;2023-07-28T00:45:27;17.00;99.90
38910;DHT22;24676;51.360;12.354;2023-07-28T00:48:13;17.00;99.90
38910;DHT22;24676;51.360;12.354;2023-07-28T00:50:58;17.00;99.90
38910;DHT22;24676;51.360;12.354;2023-07-28T00:53:43;16.90;99.90
38910;DHT22;24676;51.360;12.354;2023-07-28T00:56:27;16.90;99.90
38910;DHT22;24676;51.360;12.354;2023-07-28T00:59:12;16.90;99.90
38910;DHT22;24676;51.360;12.354;2023-07-28T01:01:57;17.00;99.90
38910;DHT22;24676;51.360;12.354;2023-07-28T01:04:41;17.00;99.90
38910;DHT22;24676;51.360;12.354;2023-07-28T01:08:01;16.90;99.90
38910;DHT22;24676;51.360;12.354;2023-07-28T01:10:47;17.00;99.90
38910;DHT22;24676;51.360;12.354;2023-07-28T01:13:32;17.00;99.90
38910;DHT22;24676;51.360;12.354;2023-07-28T01:16:16;17.00;99.90
38910;DHT22;24676;51.360;12.354;2023-07-28T01:19:01;17.00;99.90
38910;DHT22;24676;51.360;12.354;2023-07-28T01:21:50;17.00;99.90
38910;DHT22;24676;51.360;12.354;2023-07-28T01:24:55;17.00;99.90
38910;DHT22;24676;51.360;12.354;2023-07-28T01:27:40;17.10;99.90
38910;DHT22;24676;51.360;12.354;2023-07-28T01:30:27;17.00;99.90
38910;DHT22;24676;51.360;12.354;2023-07-28T01:33:12;17.00;99.90
38910;DHT22;24676;51.360;12.354;2023-07-28T01:35:57;17.00;99.90
38910;DHT22;24676;51.360;12.354;2023-07-28T01:38:42;17.10;99.90
38910;DHT22;24676;51.360;12.354;2023-07-28T01:41:27;17.10;99.90
38910;DHT22;24676;51.360;12.354;2023-07-28T01:44:11;17.10;99.90
38910;DHT22;24676;51.360;12.354;2023-07-28T01:46:55;17.10;99.90
38910;DHT22;24676;51.360;12.354;2023-07-28T01:49:39;17.10;99.90
38910;DHT22;24676;51.360;12.354;2023-07-28T01:52:23;17.10;99.90
38910;DHT22;24676;51.360;12.354;2023-07-28T01:55:08;17.10;99.90
38910;DHT22;24676;51.360;12.354;2023-07-28T01:58:00;17.10;99.90
38910;DHT22;24676;51.360;12.354;2023-07-28T02:00:44;17.10;99.90
38910;DHT22;24676;51.360;12.354;2023-07-28T02:03:30;17.10;99.90
38910;DHT22;24676;51.360;12.354;2023-07-28T02:06:14;17.10;99.90
38910;DHT22;24676;51.360;12.354;2023-07-28T02:08:58;17.10;99.90
38910;DHT22;24676;51.360;12.354;2023-07-28T02:11:42;17.10;99.90
38910;DHT22;24676;51.360;12.354;2023-07-28T02:14:26;17.10;99.90
38910;DHT22;24676;51.360;12.354;2023-07-28T02:17:10;17.10;99.90
38910;DHT22;24676;51.360;12.354;2023-07-28T02:19:55;17.10;99.90
38910;DHT22;24676;51.360;12.354;2023-07-28T02:22:39;17.20;99.90
38910;DHT22;24676;51.360;12.354;2023-07-28T02:25:24;17.10;99.90
38910;DHT22;24676;51.360;12.354;2023-07-28T02:28:10;17.10;99.90
38910;DHT22;24676;51.360;12.354;2023-07-28T02:30:54;17.10;99.90
38910;DHT22;24676;51.360;12.354;2023-07-28T02:33:38;17.10;99.90
38910;DHT22;24676;51.360;12.354;2023-07-28T02:36:22;17.10;99.90
38910;DHT22;24676;51.360;12.354;2023-07-28T02:39:07;17.10;99.90
38910;DHT22;24676;51.360;12.354;2023-07-28T02:41:51;17.10;99.90
38910;DHT22;24676;51.360;12.354;2023-07-28T02:44:35;17.20;99.90
38910;DHT22;24676;51.360;12.354;2023-07-28T02:47:20;17.10;99.90
38910;DHT22;24676;51.360;12.354;2023-07-28T02:50:04;17.20;99.90
38910;DHT22;24676;51.360;12.354;2023-07-28T02:52:49;17.20;99.90
38910;DHT22;24676;51.360;12.354;2023-07-28T02:55:33;17.20;99.90
38910;DHT22;24676;51.360;12.354;2023-07-28T02:58:24;17.20;99.90
38910;DHT22;24676;51.360;12.354;2023-07-28T03:01:08;17.20;99.90
38910;DHT22;24676;51.360;12.354;2023-07-28T03:03:52;17.20;99.90
38910;DHT22;24676;51.360;12.354;2023-07-28T03:06:37;17.20;99.90
38910;DHT22;24676;51.360;12.354;2023-07-28T03:09:21;17.20;99.90
38910;DHT22;24676;51.360;12.354;2023-07-28T03:12:06;17.20;99.90
38910;DHT22;24676;51.360;12.354;2023-07-28T03:14:51;17.20;99.90
38910;DHT22;24676;51.360;12.354;2023-07-28T03:17:35;17.20;99.90
38910;DHT22;24676;51.360;12.354;2023-07-28T03:20:19;17.20;99.90
38910;DHT22;24676;51.360;12.354;2023-07-28T03:23:03;17.20;99.90
38910;DHT22;24676;51.360;12.354;2023-07-28T03:25:48;17.20;99.90
38910;DHT22;24676;51.360;12.354;2023-07-28T03:28:32;17.30;99.90
38910;DHT22;24676;51.360;12.354;2023-07-28T03:31:16;17.30;99.90
38910;DHT22;24676;51.360;12.354;2023-07-28T03:34:01;17.30;99.90
38910;DHT22;24676;51.360;12.354;2023-07-28T03:36:45;17.20;99.90
38910;DHT22;24676;51.360;12.354;2023-07-28T03:39:29;17.30;99.90
38910;DHT22;24676;51.360;12.354;2023-07-28T03:42:15;17.30;99.90
38910;DHT22;24676;51.360;12.354;2023-07-28T03:44:59;17.20;99.90
38910;DHT22;24676;51.360;12.354;2023-07-28T03:47:43;17.30;99.90
38910;DHT22;24676;51.360;12.354;2023-07-28T03:50:28;17.20;99.90
38910;DHT22;24676;51.360;12.354;2023-07-28T03:53:12;17.30;99.90
38910;DHT22;24676;51.360;12.354;2023-07-28T03:55:56;17.30;99.90
38910;DHT22;24676;51.360;12.354;2023-07-28T03:58:42;17.30;99.90
38910;DHT22;24676;51.360;12.354;2023-07-28T04:01:26;17.30;99.90
38910;DHT22;24676;51.360;12.354;2023-07-28T04:04:11;17.30;99.90
38910;DHT22;24676;51.360;12.354;2023-07-28T04:06:55;17.30;99.90
38910;DHT22;24676;51.360;12.354;2023-07-28T04:09:39;17.30;99.90
38910;DHT22;24676;51.360;12.354;2023-07-28T04:12:23;17.30;99.90
38910;DHT22;24676;51.360;12.354;2023-07-28T04:15:07;17.30;99.90
38910;DHT22;24676;51.360;12.354;2023-07-28T04:17:53;17.30;99.90
38910;DHT22;24676;51.360;12.354;2023-07-28T04:20:37;17.30;99.90
38910;DHT22;24676;51.360;12.354;2023-07-28T04:23:21;17.30;99.90
38910;DHT22;24676;51.360;12.354;2023-07-28T04:26:06;17.40;99.90
38910;DHT22;24676;51.360;12.354;2023-07-28T04:28:50;17.40;99.90
38910;DHT22;24676;51.360;12.354;2023-07-28T04:31:35;17.40;99.90
38910;DHT22;24676;51.360;12.354;2023-07-28T04:34:19;17.40;99.90
38910;DHT22;24676;51.360;12.354;2023-07-28T04:37:04;17.40;99.90
38910;DHT22;24676;51.360;12.354;2023-07-28T04:39:48;17.30;99.90
38910;DHT22;24676;51.360;12.354;2023-07-28T04:42:32;17.20;99.90
38910;DHT22;24676;51.360;12.354;2023-07-28T04:45:16;17.10;99.90
38910;DHT22;24676;51.360;12.354;2023-07-28T04:48:01;17.10;99.90
38910;DHT22;24676;51.360;12.354;2023-07-28T04:50:45;17.00;99.90
38910;DHT22;24676;51.360;12.354;2023-07-28T04:53:29;17.10;99.90
38910;DHT22;24676;51.360;12.354;2023-07-28T04:56:14;17.10;99.90
38910;DHT22;24676;51.360;12.354;2023-07-28T04:58:58;17.20;99.90
38910;DHT22;24676;51.360;12.354;2023-07-28T05:01:43;17.20;99.90
38910;DHT22;24676;51.360;12.354;2023-07-28T05:04:27;17.30;99.90
38910;DHT22;24676;51.360;12.354;2023-07-28T05:07:11;17.30;99.90
38910;DHT22;24676;51.360;12.354;2023-07-28T05:09:55;17.30;99.90
38910;DHT22;24676;51.360;12.354;2023-07-28T05:12:40;17.20;99.90
38910;DHT22;24676;51.360;12.354;2023-07-28T05:15:24;17.20;99.90
38910;DHT22;24676;51.360;12.354;2023-07-28T05:18:08;17.20;99.90
38910;DHT22;24676;51.360;12.354;2023-07-28T05:20:53;17.20;99.90
38910;DHT22;24676;51.360;12.354;2023-07-28T05:23:37;17.20;99.90
38910;DHT22;24676;51.360;12.354;2023-07-28T05:26:21;17.30;99.90
38910;DHT22;24676;51.360;12.354;2023-07-28T05:29:05;17.30;99.90
38910;DHT22;24676;51.360;12.354;2023-07-28T05:31:49;17.40;99.90
38910;DHT22;24676;51.360;12.354;2023-07-28T05:34:33;17.50;99.90
38910;DHT22;24676;51.360;12.354;2023-07-28T05:37:18;17.50;99.90
38910;DHT22;24676;51.360;12.354;2023-07-28T05:40:02;17.60;99.90
38910;DHT22;24676;51.360;12.354;2023-07-28T05:42:47;17.70;99.90
38910;DHT22;24676;51.360;12.354;2023-07-28T05:45:31;17.80;99.90
38910;DHT22;24676;51.360;12.354;2023-07-28T05:48:15;18.00;99.90
38910;DHT22;24676;51.360;12.354;2023-07-28T05:51:02;18.10;99.90
38910;DHT22;24676;51.360;12.354;2023-07-28T05:53:46;18.20;99.90
38910;DHT22;24676;51.360;12.354;2023-07-28T05:56:31;18.40;99.90
38910;DHT22;24676;51.360;12.354;2023-07-28T05:59:15;18.40;99.90
38910;DHT22;24676;51.360;12.354;2023-07-28T06:02:00;18.30;99.90
38910;DHT22;24676;51.360;12.354;2023-07-28T06:04:44;18.30;99.90
38910;DHT22;24676;51.360;12.354;2023-07-28T06:07:28;18.20;99.90
38910;DHT22;24676;51.360;12.354;2023-07-28T06:10:13;18.30;99.90
38910;DHT22;24676;51.360;12.354;2023-07-28T06:12:57;18.30;99.90
38910;DHT22;24676;51.360;12.354;2023-07-28T06:15:42;18.30;99.90
38910;DHT22;24676;51.360;12.354;2023-07-28T06:18:26;18.40;99.90
38910;DHT22;24676;51.360;12.354;2023-07-28T06:21:10;18.70;99.90
38910;DHT22;24676;51.360;12.354;2023-07-28T06:23:54;19.00;99.90
38910;DHT22;24676;51.360;12.354;2023-07-28T06:26:39;19.30;99.90
38910;DHT22;24676;51.360;12.354;2023-07-28T06:29:23;19.40;99.90
38910;DHT22;24676;51.360;12.354;2023-07-28T06:32:08;19.50;99.90
38910;DHT22;24676;51.360;12.354;2023-07-28T06:34:52;19.60;99.90
38910;DHT22;24676;51.360;12.354;2023-07-28T06:37:37;19.80;99.90
38910;DHT22;24676;51.360;12.354;2023-07-28T06:40:21;19.80;99.90
38910;DHT22;24676;51.360;12.354;2023-07-28T06:43:06;20.10;99.90
38910;DHT22;24676;51.360;12.354;2023-07-28T06:45:52;20.00;99.90
38910;DHT22;24676;51.360;12.354;2023-07-28T06:48:37;20.00;99.90
38910;DHT22;24676;51.360;12.354;2023-07-28T06:51:21;19.90;99.90
38910;DHT22;24676;51.360;12.354;2023-07-28T06:54:05;20.10;99.90
38910;DHT22;24676;51.360;12.354;2023-07-28T06:56:53;20.60;99.90
38910;DHT22;24676;51.360;12.354;2023-07-28T06:59:37;21.20;99.90
38910;DHT22;24676;51.360;12.354;2023-07-28T07:02:22;21.30;99.90
38910;DHT22;24676;51.360;12.354;2023-07-28T07:05:06;21.00;99.90
38910;DHT22;24676;51.360;12.354;2023-07-28T07:07:51;20.90;99.90
38910;DHT22;24676;51.360;12.354;2023-07-28T07:10:36;20.90;99.90
38910;DHT22;24676;51.360;12.354;2023-07-28T07:13:20;21.20;99.90
38910;DHT22;24676;51.360;12.354;2023-07-28T07:16:05;22.40;99.90
38910;DHT22;24676;51.360;12.354;2023-07-28T07:18:53;24.60;99.90
38910;DHT22;24676;51.360;12.354;2023-07-28T07:21:37;27.00;99.30
38910;DHT22;24676;51.360;12.354;2023-07-28T07:24:22;27.00;92.40
38910;DHT22;24676;51.360;12.354;2023-07-28T07:27:06;26.90;90.70
38910;DHT22;24676;51.360;12.354;2023-07-28T07:29:52;26.40;88.70
38910;DHT22;24676;51.360;12.354;2023-07-28T07:32:36;25.60;94.00
38910;DHT22;24676;51.360;12.354;2023-07-28T07:35:21;25.50;96.40
38910;DHT22;24676;51.360;12.354;2023-07-28T07:38:05;25.00;96.80
38910;DHT22;24676;51.360;12.354;2023-07-28T07:40:53;24.70;99.90
38910;DHT22;24676;51.360;12.354;2023-07-28T07:43:38;24.40;99.90
38910;DHT22;24676;51.360;12.354;2023-07-28T07:46:23;24.40;99.90
38910;DHT22;24676;51.360;12.354;2023-07-28T07:49:07;24.10;99.90
38910;DHT22;24676;51.360;12.354;2023-07-28T07:51:52;24.20;99.90
38910;DHT22;24676;51.360;12.354;2023-07-28T07:54:36;24.70;99.90
38910;DHT22;24676;51.360;12.354;2023-07-28T07:57:20;26.40;96.70
38910;DHT22;24676;51.360;12.354;2023-07-28T08:00:05;27.60;82.50
38910;DHT22;24676;51.360;12.354;2023-07-28T08:02:50;28.90;74.70
38910;DHT22;24676;51.360;12.354;2023-07-28T08:05:34;29.10;65.40
38910;DHT22;24676;51.360;12.354;2023-07-28T08:08:18;28.80;66.50
38910;DHT22;24676;51.360;12.354;2023-07-28T08:11:03;27.80;67.80
38910;DHT22;24676;51.360;12.354;2023-07-28T08:13:48;26.90;73.90
38910;DHT22;24676;51.360;12.354;2023-07-28T08:16:32;26.00;82.10
38910;DHT22;24676;51.360;12.354;2023-07-28T08:19:17;26.30;84.30
38910;DHT22;24676;51.360;12.354;2023-07-28T08:22:02;26.60;77.10
38910;DHT22;24676;51.360;12.354;2023-07-28T08:24:49;26.20;81.10
38910;DHT22;24676;51.360;12.354;2023-07-28T08:27:33;25.50;84.10
38910;DHT22;24676;51.360;12.354;2023-07-28T08:30:18;25.00;87.10
38910;DHT22;24676;51.360;12.354;2023-07-28T08:33:02;24.80;90.90
38910;DHT22;24676;51.360;12.354;2023-07-28T08:35:47;24.60;91.70
38910;DHT22;24676;51.360;12.354;2023-07-28T08:38:32;24.30;94.30
38910;DHT22;24676;51.360;12.354;2023-07-28T08:41:16;24.00;97.70
38910;DHT22;24676;51.360;12.354;2023-07-28T08:44:00;23.90;99.40
38910;DHT22;24676;51.360;12.354;2023-07-28T08:46:44;24.00;99.90
38910;DHT22;24676;51.360;12.354;2023-07-28T08:49:29;24.40;99.80
38910;DHT22;24676;51.360;12.354;2023-07-28T08:52:17;24.50;97.50
38910;DHT22;24676;51.360;12.354;2023-07-28T08:55:02;24.80;96.80
38910;DHT22;24676;51.360;12.354;2023-07-28T08:57:46;25.00;94.60
38910;DHT22;24676;51.360;12.354;2023-07-28T09:00:32;25.30;93.90
38910;DHT22;24676;51.360;12.354;2023-07-28T09:03:18;25.50;93.50
38910;DHT22;24676;51.360;12.354;2023-07-28T09:06:03;25.70;90.40
38910;DHT22;24676;51.360;12.354;2023-07-28T09:08:48;25.80;87.40
38910;DHT22;24676;51.360;12.354;2023-07-28T09:11:32;25.30;90.20
38910;DHT22;24676;51.360;12.354;2023-07-28T09:14:18;25.00;91.80
38910;DHT22;24676;51.360;12.354;2023-07-28T09:17:11;25.00;93.50
38910;DHT22;24676;51.360;12.354;2023-07-28T09:19:56;24.90;92.60
38910;DHT22;24676;51.360;12.354;2023-07-28T09:22:42;25.10;91.90
38910;DHT22;24676;51.360;12.354;2023-07-28T09:25:29;25.40;92.20
38910;DHT22;24676;51.360;12.354;2023-07-28T09:28:14;25.50;90.70
38910;DHT22;24676;51.360;12.354;2023-07-28T09:31:04;25.60;90.70
38910;DHT22;24676;51.360;12.354;2023-07-28T09:33:48;25.80;90.80
38910;DHT22;24676;51.360;12.354;2023-07-28T09:36:33;26.10;91.20
38910;DHT22;24676;51.360;12.354;2023-07-28T09:39:17;26.40;87.60
38910;DHT22;24676;51.360;12.354;2023-07-28T09:42:03;26.40;85.00
38910;DHT22;24676;51.360;12.354;2023-07-28T09:44:48;26.20;84.40
38910;DHT22;24676;51.360;12.354;2023-07-28T09:47:34;26.20;86.20
38910;DHT22;24676;51.360;12.354;2023-07-28T09:50:21;25.80;83.10
38910;DHT22;24676;51.360;12.354;2023-07-28T09:53:08;25.60;86.20
38910;DHT22;24676;51.360;12.354;2023-07-28T09:55:55;25.40;86.40
38910;DHT22;24676;51.360;12.354;2023-07-28T09:58:41;25.30;90.50
38910;DHT22;24676;51.360;12.354;2023-07-28T10:01:28;25.20;89.80
38910;DHT22;24676;51.360;12.354;2023-07-28T10:04:12;25.10;90.50
38910;DHT22;24676;51.360;12.354;2023-07-28T10:06:59;25.00;91.50
38910;DHT22;24676;51.360;12.354;2023-07-28T10:09:44;25.40;91.40
38910;DHT22;24676;51.360;12.354;2023-07-28T10:12:29;26.00;88.80
38910;DHT22;24676;51.360;12.354;2023-07-28T10:15:15;26.00;85.10
38910;DHT22;24676;51.360;12.354;2023-07-28T10:18:00;26.00;85.30
38910;DHT22;24676;51.360;12.354;2023-07-28T10:20:44;25.80;84.80
38910;DHT22;24676;51.360;12.354;2023-07-28T10:23:34;25.70;86.20
38910;DHT22;24676;51.360;12.354;2023-07-28T10:26:35;26.10;85.40
38910;DHT22;24676;51.360;12.354;2023-07-28T10:29:20;26.10;84.80
38910;DHT22;24676;51.360;12.354;2023-07-28T10:32:04;26.60;82.90
38910;DHT22;24676;51.360;12.354;2023-07-28T10:35:22;27.00;79.20
38910;DHT22;24676;51.360;12.354;2023-07-28T10:38:29;26.90;77.20
38910;DHT22;24676;51.360;12.354;2023-07-28T10:41:16;26.80;76.00
38910;DHT22;24676;51.360;12.354;2023-07-28T10:44:01;27.20;76.00
38910;DHT22;24676;51.360;12.354;2023-07-28T10:46:46;27.40;73.30
38910;DHT22;24676;51.360;12.354;2023-07-28T10:49:32;27.20;75.20
38910;DHT22;24676;51.360;12.354;2023-07-28T10:52:18;28.10;73.50
38910;DHT22;24676;51.360;12.354;2023-07-28T10:55:02;28.70;65.30
38910;DHT22;24676;51.360;12.354;2023-07-28T10:57:48;28.50;63.60
38910;DHT22;24676;51.360;12.354;2023-07-28T11:00:32;28.00;65.10
38910;DHT22;24676;51.360;12.354;2023-07-28T11:03:17;27.40;67.30
38910;DHT22;24676;51.360;12.354;2023-07-28T11:06:03;26.90;69.30
38910;DHT22;24676;51.360;12.354;2023-07-28T11:08:48;26.40;72.20
38910;DHT22;24676;51.360;12.354;2023-07-28T11:11:33;26.10;74.10
38910;DHT22;24676;51.360;12.354;2023-07-28T11:14:18;25.80;75.80
38910;DHT22;24676;51.360;12.354;2023-07-28T11:17:03;25.60;76.20
38910;DHT22;24676;51.360;12.354;2023-07-28T11:19:49;25.50;78.00
38910;DHT22;24676;51.360;12.354;2023-07-28T11:22:36;25.20;81.80
38910;DHT22;24676;51.360;12.354;2023-07-28T11:25:21;25.30;82.20
38910;DHT22;24676;51.360;12.354;2023-07-28T11:28:05;25.60;81.70
38910;DHT22;24676;51.360;12.354;2023-07-28T11:30:51;25.80;79.80
38910;DHT22;24676;51.360;12.354;2023-07-28T11:33:37;25.80;79.80
38910;DHT22;24676;51.360;12.354;2023-07-28T11:36:30;26.00;83.00
38910;DHT22;24676;51.360;12.354;2023-07-28T11:39:16;27.90;80.00
38910;DHT22;24676;51.360;12.354;2023-07-28T11:42:01;29.30;68.60
38910;DHT22;24676;51.360;12.354;2023-07-28T11:44:45;30.30;66.00
38910;DHT22;24676;51.360;12.354;2023-07-28T11:47:30;31.50;59.50
38910;DHT22;24676;51.360;12.354;2023-07-28T11:50:22;32.10;56.70
38910;DHT22;24676;51.360;12.354;2023-07-28T11:53:08;31.50;54.60
38910;DHT22;24676;51.360;12.354;2023-07-28T11:55:52;30.40;56.80
38910;DHT22;24676;51.360;12.354;2023-07-28T11:58:38;29.40;57.10
38910;DHT22;24676;51.360;12.354;2023-07-28T12:01:22;28.40;60.10
38910;DHT22;24676;51.360;12.354;2023-07-28T12:04:23;27.70;63.20
38910;DHT22;24676;51.360;12.354;2023-07-28T12:07:08;27.20;66.80
38910;DHT22;24676;51.360;12.354;2023-07-28T12:09:53;27.30;68.60
38910;DHT22;24676;51.360;12.354;2023-07-28T12:12:47;28.20;64.50
38910;DHT22;24676;51.360;12.354;2023-07-28T12:15:31;28.00;62.30
38910;DHT22;24676;51.360;12.354;2023-07-28T12:18:16;28.60;65.10
38910;DHT22;24676;51.360;12.354;2023-07-28T12:21:02;30.50;61.30
38910;DHT22;24676;51.360;12.354;2023-07-28T12:23:47;32.40;55.40
38910;DHT22;24676;51.360;12.354;2023-07-28T12:26:31;32.20;54.20
38910;DHT22;24676;51.360;12.354;2023-07-28T12:29:15;31.50;53.60
38910;DHT22;24676;51.360;12.354;2023-07-28T12:32:00;30.80;53.90
38910;DHT22;24676;51.360;12.354;2023-07-28T12:34:45;30.00;54.70
38910;DHT22;24676;51.360;12.354;2023-07-28T12:37:29;29.20;57.00
38910;DHT22;24676;51.360;12.354;2023-07-28T12:40:13;28.70;58.50
38910;DHT22;24676;51.360;12.354;2023-07-28T12:42:58;28.70;59.20
38910;DHT22;24676;51.360;12.354;2023-07-28T12:45:42;28.80;59.00
38910;DHT22;24676;51.360;12.354;2023-07-28T12:48:26;28.40;59.90
38910;DHT22;24676;51.360;12.354;2023-07-28T12:51:10;27.80;60.40
38910;DHT22;24676;51.360;12.354;2023-07-28T12:53:55;27.40;62.80
38910;DHT22;24676;51.360;12.354;2023-07-28T12:56:39;27.30;65.70
38910;DHT22;24676;51.360;12.354;2023-07-28T12:59:23;27.70;65.10
38910;DHT22;24676;51.360;12.354;2023-07-28T13:02:07;28.70;62.30
38910;DHT22;24676;51.360;12.354;2023-07-28T13:04:51;28.80;59.50
38910;DHT22;24676;51.360;12.354;2023-07-28T13:07:36;28.40;59.80
38910;DHT22;24676;51.360;12.354;2023-07-28T13:10:30;27.90;61.20
38910;DHT22;24676;51.360;12.354;2023-07-28T13:13:14;27.70;61.50
38910;DHT22;24676;51.360;12.354;2023-07-28T13:15:59;27.70;62.60
38910;DHT22;24676;51.360;12.354;2023-07-28T13:18:43;27.60;62.80
38910;DHT22;24676;51.360;12.354;2023-07-28T13:21:27;27.80;62.90
38910;DHT22;24676;51.360;12.354;2023-07-28T13:24:11;27.90;62.60
38910;DHT22;24676;51.360;12.354;2023-07-28T13:26:55;27.90;62.20
38910;DHT22;24676;51.360;12.354;2023-07-28T13:29:40;27.70;62.80
38910;DHT22;24676;51.360;12.354;2023-07-28T13:32:25;27.70;63.50
38910;DHT22;24676;51.360;12.354;2023-07-28T13:35:10;27.80;61.40
38910;DHT22;24676;51.360;12.354;2023-07-28T13:37:54;27.80;62.30
38910;DHT22;24676;51.360;12.354;2023-07-28T13:40:38;27.80;60.40
38910;DHT22;24676;51.360;12.354;2023-07-28T13:43:23;27.60;60.30
38910;DHT22;24676;51.360;12.354;2023-07-28T13:46:07;27.40;60.70
38910;DHT22;24676;51.360;12.354;2023-07-28T13:48:51;27.30;59.80
38910;DHT22;24676;51.360;12.354;2023-07-28T13:51:36;27.40;61.00
38910;DHT22;24676;51.360;12.354;2023-07-28T13:54:20;27.30;59.80
38910;DHT22;24676;51.360;12.354;2023-07-28T13:57:05;27.10;60.90
38910;DHT22;24676;51.360;12.354;2023-07-28T13:59:49;27.10;61.10
38910;DHT22;24676;51.360;12.354;2023-07-28T14:02:34;27.20;61.40
38910;DHT22;24676;51.360;12.354;2023-07-28T14:05:18;27.30;61.10
38910;DHT22;24676;51.360;12.354;2023-07-28T14:08:03;27.40;61.50
38910;DHT22;24676;51.360;12.354;2023-07-28T14:10:47;27.60;59.70
38910;DHT22;24676;51.360;12.354;2023-07-28T14:13:31;27.60;59.70
38910;DHT22;24676;51.360;12.354;2023-07-28T14:16:17;27.80;58.50
38910;DHT22;24676;51.360;12.354;2023-07-28T14:19:01;28.00;58.80
38910;DHT22;24676;51.360;12.354;2023-07-28T14:21:46;27.90;58.00
38910;DHT22;24676;51.360;12.354;2023-07-28T14:24:30;27.80;58.30
38910;DHT22;24676;51.360;12.354;2023-07-28T14:27:14;27.70;57.80
38910;DHT22;24676;51.360;12.354;2023-07-28T14:29:58;27.50;58.90
38910;DHT22;24676;51.360;12.354;2023-07-28T14:32:42;27.30;58.60
38910;DHT22;24676;51.360;12.354;2023-07-28T14:35:26;27.20;59.30
38910;DHT22;24676;51.360;12.354;2023-07-28T14:38:11;27.30;58.80
38910;DHT22;24676;51.360;12.354;2023-07-28T14:40:55;27.30;58.70
38910;DHT22;24676;51.360;12.354;2023-07-28T14:43:39;27.20;59.40
38910;DHT22;24676;51.360;12.354;2023-07-28T14:46:23;27.20;60.90
38910;DHT22;24676;51.360;12.354;2023-07-28T14:49:08;27.20;59.50
38910;DHT22;24676;51.360;12.354;2023-07-28T14:51:53;27.10;58.80
38910;DHT22;24676;51.360;12.354;2023-07-28T14:54:37;27.10;60.10
38910;DHT22;24676;51.360;12.354;2023-07-28T14:57:21;27.20;59.10
38910;DHT22;24676;51.360;12.354;2023-07-28T15:00:06;27.30;58.60
38910;DHT22;24676;51.360;12.354;2023-07-28T15:02:50;27.30;58.50
38910;DHT22;24676;51.360;12.354;2023-07-28T15:05:34;27.30;58.60
38910;DHT22;24676;51.360;12.354;2023-07-28T15:08:19;27.30;58.70
38910;DHT22;24676;51.360;12.354;2023-07-28T15:11:03;27.30;58.30
38910;DHT22;24676;51.360;12.354;2023-07-28T15:13:47;27.20;57.90
38910;DHT22;24676;51.360;12.354;2023-07-28T15:16:31;27.10;58.10
38910;DHT22;24676;51.360;12.354;2023-07-28T15:19:15;27.00;58.20
38910;DHT22;24676;51.360;12.354;2023-07-28T15:21:59;27.10;57.90
38910;DHT22;24676;51.360;12.354;2023-07-28T15:24:44;27.10;58.50
38910;DHT22;24676;51.360;12.354;2023-07-28T15:27:28;27.20;58.70
38910;DHT22;24676;51.360;12.354;2023-07-28T15:30:12;27.20;58.80
38910;DHT22;24676;51.360;12.354;2023-07-28T15:32:56;27.10;59.30
38910;DHT22;24676;51.360;12.354;2023-07-28T15:35:40;27.00;59.80
38910;DHT22;24676;51.360;12.354;2023-07-28T15:38:25;27.00;60.70
38910;DHT22;24676;51.360;12.354;2023-07-28T15:41:09;27.00;61.30
38910;DHT22;24676;51.360;12.354;2023-07-28T15:43:53;26.90;62.20
38910;DHT22;24676;51.360;12.354;2023-07-28T15:46:37;26.90;61.30
38910;DHT22;24676;51.360;12.354;2023-07-28T15:49:21;26.90;62.10
38910;DHT22;24676;51.360;12.354;2023-07-28T15:52:06;26.80;62.30
38910;DHT22;24676;51.360;12.354;2023-07-28T15:54:50;26.80;61.90
38910;DHT22;24676;51.360;12.354;2023-07-28T15:57:34;26.80;62.60
38910;DHT22;24676;51.360;12.354;2023-07-28T16:00:18;26.80;63.50
38910;DHT22;24676;51.360;12.354;2023-07-28T16:03:02;26.70;61.80
38910;DHT22;24676;51.360;12.354;2023-07-28T16:05:46;26.60;61.90
38910;DHT22;24676;51.360;12.354;2023-07-28T16:08:31;26.60;62.50
38910;DHT22;24676;51.360;12.354;2023-07-28T16:11:15;26.70;61.70
38910;DHT22;24676;51.360;12.354;2023-07-28T16:13:59;26.70;60.60
38910;DHT22;24676;51.360;12.354;2023-07-28T16:16:44;26.70;61.20
38910;DHT22;24676;51.360;12.354;2023-07-28T16:19:28;26.60;60.80
38910;DHT22;24676;51.360;12.354;2023-07-28T16:22:12;26.50;61.00
38910;DHT22;24676;51.360;12.354;2023-07-28T16:24:57;26.50;62.00
38910;DHT22;24676;51.360;12.354;2023-07-28T16:27:41;26.40;62.00
38910;DHT22;24676;51.360;12.354;2023-07-28T16:30:25;26.40;62.20
38910;DHT22;24676;51.360;12.354;2023-07-28T16:33:10;26.30;61.90
38910;DHT22;24676;51.360;12.354;2023-07-28T16:35:54;26.30;62.20
38910;DHT22;24676;51.360;12.354;2023-07-28T16:38:38;26.30;63.00
38910;DHT22;24676;51.360;12.354;2023-07-28T16:41:22;26.20;63.30
38910;DHT22;24676;51.360;12.354;2023-07-28T16:44:06;26.20;64.00
38910;DHT22;24676;51.360;12.354;2023-07-28T16:46:50;26.10;64.80
38910;DHT22;24676;51.360;12.354;2023-07-28T16:49:34;26.00;66.10
38910;DHT22;24676;51.360;12.354;2023-07-28T16:52:19;26.00;66.50
38910;DHT22;24676;51.360;12.354;2023-07-28T16:55:05;25.80;67.50
38910;DHT22;24676;51.360;12.354;2023-07-28T16:57:49;25.70;68.50
38910;DHT22;24676;51.360;12.354;2023-07-28T17:00:34;25.50;68.70
38910;DHT22;24676;51.360;12.354;2023-07-28T17:03:18;25.40;69.70
38910;DHT22;24676;51.360;12.354;2023-07-28T17:06:02;25.40;71.50